createdAt,value
2017-05-27T00:00:09.115Z,16.60
2017-05-27T00:02:36.013Z,16.90
2017-05-27T00:05:03.325Z,16.60
2017-05-27T00:07:30.244Z,16.60
2017-05-27T00:09:57.158Z,16.50
2017-05-27T00:12:24.478Z,16.90
2017-05-27T00:14:51.404Z,16.80
2017-05-27T00:17:18.293Z,16.50
2017-05-27T00:19:45.633Z,16.10
2017-05-27T00:22:12.542Z,16.00
2017-05-27T00:24:39.452Z,16.10
2017-05-27T00:27:06.724Z,16.30
2017-05-27T00:29:33.652Z,16.20
2017-05-27T00:32:00.559Z,16.00
2017-05-27T00:34:27.907Z,16.20
2017-05-27T00:36:54.818Z,16.50
2017-05-27T00:39:21.719Z,16.40
2017-05-27T00:41:49.056Z,16.30
2017-05-27T00:44:15.988Z,16.10
2017-05-27T00:46:42.912Z,16.10
2017-05-27T00:49:10.286Z,16.20
2017-05-27T00:51:37.692Z,15.90
2017-05-27T00:54:04.597Z,15.90
2017-05-27T00:56:31.884Z,16.30
2017-05-27T00:58:58.815Z,16.40
2017-05-27T01:01:25.720Z,16.40
2017-05-27T01:03:52.940Z,15.70
2017-05-27T01:06:19.837Z,16.00
2017-05-27T01:08:46.726Z,16.00
2017-05-27T01:11:14.434Z,16.40
2017-05-27T01:13:41.324Z,16.40
2017-05-27T01:16:08.427Z,16.20
2017-05-27T01:18:35.701Z,16.40
2017-05-27T01:21:02.604Z,16.50
2017-05-27T01:23:29.520Z,16.20
2017-05-27T01:25:56.813Z,16.20
2017-05-27T01:28:23.784Z,16.60
2017-05-27T01:30:50.732Z,16.60
2017-05-27T01:33:18.065Z,16.80
2017-05-27T01:35:44.953Z,17.00
2017-05-27T01:38:11.876Z,17.00
2017-05-27T01:40:39.227Z,17.00
2017-05-27T01:43:06.144Z,17.00
2017-05-27T01:45:33.092Z,16.90
2017-05-27T01:48:00.472Z,16.80
2017-05-27T01:50:27.405Z,16.50
2017-05-27T01:52:54.313Z,16.80
2017-05-27T01:55:21.560Z,17.00
2017-05-27T01:57:48.466Z,17.10
2017-05-27T02:00:15.360Z,17.00
2017-05-27T02:02:42.668Z,17.20
2017-05-27T02:05:09.585Z,16.90
2017-05-27T02:07:37.678Z,16.90
2017-05-27T02:10:05.135Z,16.70
2017-05-27T02:12:32.063Z,16.70
2017-05-27T02:14:58.977Z,16.80
2017-05-27T02:17:26.264Z,16.80
2017-05-27T02:19:53.168Z,16.60
2017-05-27T02:22:20.084Z,16.80
2017-05-27T02:24:47.425Z,16.80
2017-05-27T02:27:14.336Z,16.80
2017-05-27T02:29:41.224Z,16.80
2017-05-27T02:32:08.564Z,16.70
2017-05-27T02:34:35.460Z,16.80
2017-05-27T02:37:02.359Z,16.50
2017-05-27T02:39:29.604Z,16.60
2017-05-27T02:41:56.543Z,16.70
2017-05-27T02:44:23.442Z,16.60
2017-05-27T02:46:50.704Z,16.40
2017-05-27T02:49:18.129Z,16.40
2017-05-27T02:51:45.050Z,16.20
2017-05-27T02:54:12.392Z,16.20
2017-05-27T02:56:39.315Z,16.10
2017-05-27T02:59:06.245Z,16.20
2017-05-27T03:01:33.552Z,16.20
2017-05-27T03:04:00.487Z,16.20
2017-05-27T03:06:27.375Z,16.40
2017-05-27T03:08:54.685Z,16.20
2017-05-27T03:11:21.639Z,16.20
2017-05-27T03:13:48.581Z,16.00
2017-05-27T03:16:15.828Z,16.10
2017-05-27T03:18:42.743Z,16.20
2017-05-27T03:21:09.668Z,16.40
2017-05-27T03:23:36.973Z,16.10
2017-05-27T03:26:03.921Z,16.00
2017-05-27T03:28:30.840Z,15.90
2017-05-27T03:30:58.206Z,16.10
2017-05-27T03:33:25.133Z,16.10
2017-05-27T03:35:52.061Z,16.20
2017-05-27T03:38:19.256Z,15.90
2017-05-27T03:40:46.167Z,16.00
2017-05-27T03:43:13.087Z,16.00
2017-05-27T03:45:40.476Z,16.00
2017-05-27T03:48:07.409Z,16.10
2017-05-27T03:50:34.348Z,16.10
2017-05-27T03:53:01.713Z,16.20
2017-05-27T03:55:28.646Z,16.20
2017-05-27T03:57:55.566Z,16.30
2017-05-27T04:00:22.985Z,16.20
2017-05-27T04:02:49.881Z,16.10
2017-05-27T04:05:17.490Z,16.30
2017-05-27T04:07:44.740Z,16.30
2017-05-27T04:10:11.655Z,16.20
2017-05-27T04:12:38.553Z,16.10
2017-05-27T04:15:05.852Z,15.90
2017-05-27T04:17:32.812Z,16.00
2017-05-27T04:19:59.753Z,16.20
2017-05-27T04:22:27.074Z,16.10
2017-05-27T04:24:53.984Z,16.00
2017-05-27T04:27:20.888Z,16.30
2017-05-27T04:29:48.328Z,16.30
2017-05-27T04:32:15.297Z,16.40
2017-05-27T04:34:42.219Z,16.50
2017-05-27T04:37:09.560Z,16.30
2017-05-27T04:39:36.481Z,16.20
2017-05-27T04:42:03.393Z,16.50
2017-05-27T04:44:30.678Z,16.50
2017-05-27T04:46:57.611Z,16.50
2017-05-27T04:49:24.537Z,16.70
2017-05-27T04:51:51.929Z,16.70
2017-05-27T04:54:18.848Z,16.70
2017-05-27T04:56:45.780Z,16.50
2017-05-27T04:59:13.060Z,16.40
2017-05-27T05:01:39.970Z,16.60
2017-05-27T05:04:06.958Z,16.70
2017-05-27T05:06:34.305Z,16.60
2017-05-27T05:09:01.229Z,16.50
2017-05-27T05:11:28.667Z,16.40
2017-05-27T05:13:55.959Z,16.40
2017-05-27T05:16:22.889Z,16.60
2017-05-27T05:18:49.815Z,16.70
2017-05-27T05:21:17.197Z,16.80
2017-05-27T05:23:44.137Z,16.90
2017-05-27T05:26:11.069Z,17.00
2017-05-27T05:28:38.428Z,17.10
2017-05-27T05:31:05.351Z,17.20
2017-05-27T05:33:32.280Z,17.30
2017-05-27T05:35:59.545Z,17.30
2017-05-27T05:38:26.460Z,17.40
2017-05-27T05:40:53.449Z,17.30
2017-05-27T05:43:20.811Z,17.50
2017-05-27T05:45:47.715Z,17.40
2017-05-27T05:48:14.643Z,17.50
2017-05-27T05:50:42.024Z,17.60
2017-05-27T05:53:08.956Z,17.70
2017-05-27T05:55:35.867Z,17.70
2017-05-27T05:58:04.195Z,17.70
2017-05-27T06:00:31.113Z,17.70
2017-05-27T06:02:58.033Z,17.90
2017-05-27T06:05:25.297Z,17.90
2017-05-27T06:07:52.201Z,18.10
2017-05-27T06:10:19.125Z,18.00
2017-05-27T06:12:46.457Z,18.10
2017-05-27T06:15:13.366Z,18.20
2017-05-27T06:17:40.294Z,18.30
2017-05-27T06:20:07.607Z,18.40
2017-05-27T06:22:34.544Z,18.20
2017-05-27T06:25:01.458Z,18.30
2017-05-27T06:27:28.754Z,18.40
2017-05-27T06:29:55.717Z,18.30
2017-05-27T06:32:22.645Z,18.40
2017-05-27T06:34:49.973Z,18.60
2017-05-27T06:37:16.904Z,18.70
2017-05-27T06:39:43.822Z,18.80
2017-05-27T06:42:11.318Z,18.70
2017-05-27T06:44:38.230Z,18.80
2017-05-27T06:47:05.136Z,18.90
2017-05-27T06:49:32.440Z,18.80
2017-05-27T06:51:59.362Z,18.90
2017-05-27T06:54:26.441Z,19.00
2017-05-27T06:56:53.773Z,18.90
2017-05-27T06:59:20.720Z,19.30
2017-05-27T07:01:47.674Z,19.10
2017-05-27T07:04:15.040Z,19.20
2017-05-27T07:06:41.955Z,19.50
2017-05-27T07:09:08.874Z,19.40
2017-05-27T07:11:36.248Z,19.30
2017-05-27T07:14:03.193Z,19.40
2017-05-27T07:16:30.112Z,19.50
2017-05-27T07:18:57.390Z,19.60
2017-05-27T07:21:24.330Z,19.60
2017-05-27T07:23:51.274Z,19.70
2017-05-27T07:26:18.617Z,19.70
2017-05-27T07:28:45.540Z,19.60
2017-05-27T07:31:12.493Z,19.70
2017-05-27T07:33:39.879Z,20.00
2017-05-27T07:36:06.788Z,19.90
2017-05-27T07:38:33.725Z,19.90
2017-05-27T07:41:01.115Z,19.90
2017-05-27T07:43:28.089Z,20.00
2017-05-27T07:45:55.024Z,20.10
2017-05-27T07:48:22.352Z,20.40
2017-05-27T07:50:49.265Z,20.40
2017-05-27T07:53:16.211Z,20.60
2017-05-27T07:55:43.497Z,20.50
2017-05-27T07:58:10.408Z,20.50
2017-05-27T08:00:37.345Z,20.50
2017-05-27T08:03:04.612Z,20.50
2017-05-27T08:05:31.553Z,20.70
2017-05-27T08:07:58.462Z,20.80
2017-05-27T08:10:25.769Z,20.80
2017-05-27T08:12:52.714Z,20.60
2017-05-27T08:15:19.643Z,20.60
2017-05-27T08:17:47.000Z,20.80
2017-05-27T08:20:13.911Z,20.80
2017-05-27T08:22:40.821Z,20.70
2017-05-27T08:25:08.093Z,20.90
2017-05-27T08:27:34.989Z,20.90
2017-05-27T08:30:01.997Z,21.00
2017-05-27T08:32:45.250Z,21.10
2017-05-27T08:35:12.228Z,21.10
2017-05-27T08:37:39.137Z,21.10
2017-05-27T08:40:06.461Z,21.20
2017-05-27T08:42:33.384Z,21.30
2017-05-27T08:45:00.294Z,21.40
2017-05-27T08:47:27.619Z,21.30
2017-05-27T08:49:54.546Z,21.40
2017-05-27T08:52:21.458Z,21.40
2017-05-27T08:54:48.740Z,21.30
2017-05-27T08:57:15.692Z,21.50
2017-05-27T08:59:42.626Z,21.60
2017-05-27T09:02:09.992Z,21.70
2017-05-27T09:04:36.907Z,21.70
2017-05-27T09:07:03.837Z,21.70
2017-05-27T09:09:31.129Z,21.80
2017-05-27T09:11:58.035Z,21.80
2017-05-27T09:14:24.968Z,21.90
2017-05-27T09:16:52.237Z,21.90
2017-05-27T09:19:19.168Z,22.20
2017-05-27T09:21:46.070Z,22.20
2017-05-27T09:24:13.380Z,22.20
2017-05-27T09:26:40.321Z,22.30
2017-05-27T09:29:07.240Z,22.30
2017-05-27T09:31:34.613Z,22.20
2017-05-27T09:34:01.547Z,22.40
2017-05-27T09:36:28.465Z,22.40
2017-05-27T09:38:55.728Z,22.50
2017-05-27T09:41:22.644Z,22.60
2017-05-27T09:43:49.550Z,22.60
2017-05-27T09:46:16.912Z,22.60
2017-05-27T09:48:43.826Z,22.50
2017-05-27T09:51:10.755Z,22.40
2017-05-27T09:53:38.140Z,22.70
2017-05-27T09:56:05.112Z,22.70
2017-05-27T09:58:32.032Z,22.80
2017-05-27T10:00:59.352Z,22.80
2017-05-27T10:03:26.279Z,22.80
2017-05-27T10:05:53.227Z,22.90
2017-05-27T10:08:20.599Z,22.90
2017-05-27T10:10:47.528Z,23.10
2017-05-27T10:13:13.728Z,23.10
2017-05-27T10:15:41.033Z,23.20
2017-05-27T10:18:07.945Z,23.20
2017-05-27T10:20:34.884Z,23.30
2017-05-27T10:23:02.149Z,23.20
2017-05-27T10:25:29.062Z,23.20
2017-05-27T10:27:55.987Z,23.40
2017-05-27T10:30:23.282Z,23.30
2017-05-27T10:32:50.224Z,23.50
2017-05-27T10:35:17.141Z,23.30
2017-05-27T10:37:44.432Z,23.50
2017-05-27T10:40:11.332Z,23.50
2017-05-27T10:42:38.346Z,23.60
2017-05-27T10:45:05.649Z,23.60
2017-05-27T10:47:32.631Z,23.70
2017-05-27T10:49:59.615Z,23.70
2017-05-27T10:52:27.112Z,23.70
2017-05-27T10:54:54.024Z,24.00
2017-05-27T10:57:20.944Z,24.00
2017-05-27T10:59:49.123Z,24.00
2017-05-27T11:02:16.045Z,24.00
2017-05-27T11:04:42.929Z,24.10
2017-05-27T11:07:10.308Z,24.10
2017-05-27T11:09:37.226Z,24.10
2017-05-27T11:12:04.182Z,24.30
2017-05-27T11:14:31.643Z,24.20
2017-05-27T11:16:58.615Z,24.10
2017-05-27T11:19:25.557Z,24.30
2017-05-27T11:21:52.981Z,24.30
2017-05-27T11:24:19.900Z,24.40
2017-05-27T11:26:46.804Z,24.50
2017-05-27T11:29:14.098Z,24.70
2017-05-27T11:31:41.004Z,24.70
2017-05-27T11:34:07.928Z,24.70
2017-05-27T11:36:35.248Z,24.70
2017-05-27T11:39:02.216Z,24.80
2017-05-27T11:41:29.149Z,24.80
2017-05-27T11:43:56.440Z,24.80
2017-05-27T11:46:23.346Z,24.80
2017-05-27T11:48:50.300Z,24.90
2017-05-27T11:51:17.609Z,24.90
2017-05-27T11:53:44.529Z,24.90
2017-05-27T11:56:11.442Z,25.00
2017-05-27T11:58:38.808Z,24.90
2017-05-27T12:01:05.771Z,24.90
2017-05-27T12:03:32.738Z,25.10
2017-05-27T12:06:00.098Z,25.10
2017-05-27T12:08:27.008Z,25.20
2017-05-27T12:10:53.947Z,25.20
2017-05-27T12:13:21.244Z,25.30
2017-05-27T12:15:48.170Z,25.40
2017-05-27T12:18:15.089Z,25.50
2017-05-27T12:20:42.454Z,25.60
2017-05-27T12:23:09.349Z,25.50
2017-05-27T12:25:36.292Z,25.40
2017-05-27T12:28:03.606Z,25.30
2017-05-27T12:30:30.542Z,25.60
2017-05-27T12:32:57.478Z,25.80
2017-05-27T12:35:24.979Z,25.90
2017-05-27T12:37:51.947Z,25.80
2017-05-27T12:40:19.008Z,26.00
2017-05-27T12:42:46.398Z,26.20
2017-05-27T12:45:13.422Z,26.10
2017-05-27T12:47:40.397Z,26.20
2017-05-27T12:50:07.822Z,26.20
2017-05-27T12:52:34.733Z,26.30
2017-05-27T12:55:01.878Z,26.60
2017-05-27T12:57:29.148Z,26.70
2017-05-27T12:59:56.060Z,26.80
2017-05-27T13:02:22.979Z,26.80
2017-05-27T13:04:50.241Z,26.90
2017-05-27T13:07:17.149Z,26.90
2017-05-27T13:09:44.084Z,27.00
2017-05-27T13:12:11.355Z,27.20
2017-05-27T13:14:38.258Z,27.20
2017-05-27T13:17:05.192Z,27.30
2017-05-27T13:19:32.484Z,27.40
2017-05-27T13:21:59.437Z,27.60
2017-05-27T13:24:26.364Z,27.40
2017-05-27T13:26:53.685Z,27.60
2017-05-27T13:29:20.644Z,27.70
2017-05-27T13:31:47.587Z,27.90
2017-05-27T13:34:15.040Z,28.10
2017-05-27T13:36:42.006Z,28.10
2017-05-27T13:39:08.926Z,28.20
2017-05-27T13:41:36.295Z,28.20
2017-05-27T13:44:03.203Z,28.50
2017-05-27T13:46:30.151Z,28.80
2017-05-27T13:48:57.514Z,29.00
2017-05-27T13:51:24.471Z,28.70
2017-05-27T13:53:51.433Z,28.90
2017-05-27T13:56:18.768Z,29.20
2017-05-27T13:58:45.710Z,29.10
2017-05-27T14:01:12.638Z,29.20
2017-05-27T14:03:39.987Z,29.70
2017-05-27T14:06:06.912Z,29.40
2017-05-27T14:08:33.836Z,29.60
2017-05-27T14:11:01.133Z,29.90
2017-05-27T14:13:28.071Z,30.20
2017-05-27T14:15:54.993Z,30.30
2017-05-27T14:18:22.260Z,30.30
2017-05-27T14:20:49.170Z,30.40
2017-05-27T14:23:16.076Z,30.80
2017-05-27T14:25:43.384Z,30.90
2017-05-27T14:28:10.297Z,30.70
2017-05-27T14:30:37.223Z,31.10
2017-05-27T14:33:04.512Z,31.40
2017-05-27T14:35:31.466Z,31.90
2017-05-27T14:37:58.374Z,32.30
2017-05-27T14:40:25.652Z,32.20
2017-05-27T14:42:52.555Z,32.50
2017-05-27T14:45:19.496Z,32.40
2017-05-27T14:47:46.780Z,32.60
2017-05-27T14:50:13.746Z,32.60
2017-05-27T14:52:40.691Z,33.10
2017-05-27T14:55:08.143Z,33.40
2017-05-27T14:57:35.081Z,33.50
2017-05-27T15:00:02.012Z,33.60
2017-05-27T15:02:29.324Z,34.50
2017-05-27T15:04:56.250Z,35.60
2017-05-27T15:07:23.175Z,36.50
2017-05-27T15:09:50.498Z,37.20
2017-05-27T15:12:17.404Z,37.60
2017-05-27T15:14:44.310Z,38.20
2017-05-27T15:17:11.568Z,37.70
2017-05-27T15:19:38.596Z,38.00
2017-05-27T15:22:05.533Z,38.60
2017-05-27T15:24:32.882Z,39.10
2017-05-27T15:26:59.805Z,39.10
2017-05-27T15:29:27.331Z,39.80
2017-05-27T15:31:54.640Z,40.40
2017-05-27T15:34:21.682Z,40.20
2017-05-27T15:36:48.619Z,39.90
2017-05-27T15:39:15.878Z,39.30
2017-05-27T15:41:42.825Z,39.90
2017-05-27T15:44:09.761Z,39.80
2017-05-27T15:46:37.112Z,39.80
2017-05-27T15:49:04.040Z,40.20
2017-05-27T15:51:30.996Z,41.10
2017-05-27T15:53:58.340Z,41.10
2017-05-27T15:56:25.276Z,40.70
2017-05-27T15:58:52.216Z,41.50
2017-05-27T16:01:19.490Z,41.50
2017-05-27T16:03:46.427Z,41.00
2017-05-27T16:06:13.338Z,40.90
2017-05-27T16:08:40.608Z,40.70
2017-05-27T16:11:07.543Z,40.80
2017-05-27T16:13:34.467Z,41.40
2017-05-27T16:16:01.769Z,41.20
2017-05-27T16:18:28.677Z,41.00
2017-05-27T16:20:55.640Z,41.60
2017-05-27T16:23:22.975Z,41.20
2017-05-27T16:25:49.885Z,41.00
2017-05-27T16:28:16.805Z,41.40
2017-05-27T16:30:44.141Z,41.30
2017-05-27T16:33:11.064Z,41.70
2017-05-27T16:35:38.119Z,42.20
2017-05-27T16:38:05.465Z,42.10
2017-05-27T16:40:32.380Z,42.00
2017-05-27T16:42:59.298Z,41.60
2017-05-27T16:45:26.600Z,42.20
2017-05-27T16:47:53.519Z,42.10
2017-05-27T16:50:20.491Z,42.00
2017-05-27T16:52:47.855Z,42.00
2017-05-27T16:55:14.890Z,42.00
2017-05-27T16:57:41.822Z,41.90
2017-05-27T17:00:09.608Z,42.10
2017-05-27T17:02:36.520Z,41.90
2017-05-27T17:05:03.481Z,41.40
2017-05-27T17:07:30.811Z,41.60
2017-05-27T17:09:57.739Z,41.60
2017-05-27T17:12:24.671Z,41.60
2017-05-27T17:14:51.980Z,41.50
2017-05-27T17:17:25.545Z,42.10
2017-05-27T17:19:54.468Z,42.00
2017-05-27T17:22:21.393Z,41.50
2017-05-27T17:24:48.289Z,41.40
2017-05-27T17:27:15.580Z,40.80
2017-05-27T17:29:42.536Z,40.30
2017-05-27T17:32:09.469Z,40.30
2017-05-27T17:34:36.753Z,40.20
2017-05-27T17:37:03.768Z,40.10
2017-05-27T17:39:30.671Z,40.00
2017-05-27T17:41:57.944Z,40.20
2017-05-27T17:44:24.892Z,39.40
2017-05-27T17:46:51.889Z,39.80
2017-05-27T17:49:19.987Z,39.10
2017-05-27T17:51:46.964Z,39.00
2017-05-27T17:54:13.892Z,39.10
2017-05-27T17:56:41.241Z,38.70
2017-05-27T17:59:08.197Z,38.60
2017-05-27T18:01:35.123Z,38.40
2017-05-27T18:04:10.180Z,37.70
2017-05-27T18:06:37.086Z,37.50
2017-05-27T18:09:04.059Z,37.20
2017-05-27T18:11:31.388Z,36.90
2017-05-27T18:13:58.360Z,36.30
2017-05-27T18:16:25.299Z,35.80
2017-05-27T18:18:52.656Z,36.20
2017-05-27T18:21:19.574Z,35.40
2017-05-27T18:23:46.521Z,34.70
2017-05-27T18:26:13.893Z,34.10
2017-05-27T18:28:40.837Z,33.30
2017-05-27T18:31:07.775Z,33.20
2017-05-27T18:33:35.136Z,32.90
2017-05-27T18:36:02.096Z,33.60
2017-05-27T18:38:29.047Z,32.60
2017-05-27T18:40:56.368Z,32.70
2017-05-27T18:43:23.319Z,32.90
2017-05-27T18:45:50.257Z,32.70
2017-05-27T18:48:17.544Z,32.90
2017-05-27T18:50:44.441Z,32.70
2017-05-27T18:53:11.854Z,32.20
2017-05-27T18:55:39.147Z,32.10
2017-05-27T18:58:06.065Z,31.60
2017-05-27T19:00:33.001Z,31.10
2017-05-27T19:03:00.296Z,30.30
2017-05-27T19:05:27.237Z,29.70
2017-05-27T19:07:54.168Z,29.40
2017-05-27T19:10:21.631Z,28.80
2017-05-27T19:12:48.560Z,28.40
2017-05-27T19:15:15.464Z,28.60
2017-05-27T19:17:42.857Z,28.40
2017-05-27T19:20:09.801Z,28.00
2017-05-27T19:22:36.716Z,27.50
2017-05-27T19:25:03.992Z,27.50
2017-05-27T19:27:30.940Z,27.90
2017-05-27T19:29:57.869Z,27.80
2017-05-27T19:32:25.135Z,27.20
2017-05-27T19:34:52.072Z,26.50
2017-05-27T19:37:18.989Z,26.80
2017-05-27T19:39:46.377Z,26.60
2017-05-27T19:42:13.296Z,26.60
2017-05-27T19:44:40.241Z,26.60
2017-05-27T19:47:07.631Z,26.70
2017-05-27T19:49:34.580Z,26.50
2017-05-27T19:52:01.477Z,26.80
2017-05-27T19:54:28.828Z,25.80
2017-05-27T19:56:55.772Z,25.30
2017-05-27T19:59:22.825Z,25.50
2017-05-27T20:01:50.185Z,25.40
2017-05-27T20:04:17.111Z,25.20
2017-05-27T20:06:44.054Z,25.60
2017-05-27T20:09:11.405Z,25.20
2017-05-27T20:11:38.313Z,25.40
2017-05-27T20:14:06.000Z,25.40
2017-05-27T20:16:33.380Z,25.00
2017-05-27T20:19:00.290Z,24.90
2017-05-27T20:21:27.205Z,24.90
2017-05-27T20:23:54.501Z,24.70
2017-05-27T20:26:21.420Z,25.00
2017-05-27T20:28:48.372Z,25.30
2017-05-27T20:31:16.280Z,25.00
2017-05-27T20:33:43.217Z,24.80
2017-05-27T20:36:10.138Z,24.70
2017-05-27T20:38:37.500Z,24.50
2017-05-27T20:41:05.096Z,24.70
2017-05-27T20:43:31.993Z,24.60
2017-05-27T20:45:59.361Z,24.40
2017-05-27T20:48:26.313Z,24.30
2017-05-27T20:50:53.257Z,24.30
2017-05-27T20:53:20.589Z,24.30
2017-05-27T20:55:47.625Z,24.60
2017-05-27T20:58:14.556Z,24.50
2017-05-27T21:00:41.912Z,24.30
2017-05-27T21:03:08.876Z,24.20
2017-05-27T21:05:35.909Z,24.00
2017-05-27T21:08:03.363Z,24.30
2017-05-27T21:10:30.312Z,24.20
2017-05-27T21:12:57.413Z,24.10
2017-05-27T21:15:24.693Z,24.10
2017-05-27T21:17:51.656Z,24.10
2017-05-27T21:20:18.608Z,23.90
2017-05-27T21:22:45.945Z,23.90
2017-05-27T21:25:12.863Z,23.80
2017-05-27T21:27:39.796Z,23.50
2017-05-27T21:30:07.181Z,23.40
2017-05-27T21:32:34.104Z,23.30
2017-05-27T21:35:01.060Z,23.40
2017-05-27T21:37:28.392Z,23.30
2017-05-27T21:39:55.329Z,23.20
2017-05-27T21:42:22.301Z,23.30
2017-05-27T21:44:49.718Z,23.10
2017-05-27T21:47:16.644Z,23.10
2017-05-27T21:49:43.552Z,23.10
2017-05-27T21:52:10.904Z,23.00
2017-05-27T21:54:37.837Z,22.90
2017-05-27T21:57:04.809Z,22.80
2017-05-27T21:59:32.133Z,22.80
2017-05-27T22:01:59.072Z,22.90
2017-05-27T22:04:26.017Z,22.90
2017-05-27T22:06:53.358Z,22.80
2017-05-27T22:09:20.284Z,22.80
2017-05-27T22:11:47.254Z,22.50
2017-05-27T22:14:14.592Z,22.50
2017-05-27T22:16:41.493Z,22.40
2017-05-27T22:19:08.377Z,22.60
2017-05-27T22:21:35.643Z,22.40
2017-05-27T22:24:02.594Z,22.40
2017-05-27T22:26:29.532Z,22.40
2017-05-27T22:28:56.786Z,22.40
2017-05-27T22:31:23.817Z,22.30
2017-05-27T22:33:50.810Z,22.10
2017-05-27T22:36:18.101Z,22.20
2017-05-27T22:38:44.981Z,22.50
2017-05-27T22:41:11.889Z,22.40
2017-05-27T22:43:39.248Z,22.10
2017-05-27T22:46:06.180Z,22.00
2017-05-27T22:48:33.132Z,22.00
2017-05-27T22:51:00.487Z,22.40
2017-05-27T22:53:27.425Z,22.00
2017-05-27T22:55:54.329Z,22.10
2017-05-27T22:58:21.624Z,22.00
2017-05-27T23:00:48.520Z,21.90
2017-05-27T23:03:15.440Z,21.90
2017-05-27T23:05:42.764Z,21.80
2017-05-27T23:08:09.662Z,21.70
2017-05-27T23:10:36.644Z,21.70
2017-05-27T23:13:03.980Z,21.70
2017-05-27T23:15:30.915Z,21.50
2017-05-27T23:17:57.837Z,21.40
2017-05-27T23:20:25.085Z,21.40
2017-05-27T23:22:51.997Z,21.30
2017-05-27T23:25:18.932Z,21.30
2017-05-27T23:27:46.201Z,21.30
2017-05-27T23:30:13.127Z,21.00
2017-05-27T23:32:40.045Z,21.00
2017-05-27T23:35:07.304Z,20.90
2017-05-27T23:37:34.216Z,21.00
2017-05-27T23:40:01.130Z,21.00
2017-05-27T23:42:28.480Z,21.00
2017-05-27T23:44:55.365Z,20.80
2017-05-27T23:47:22.260Z,20.80
2017-05-27T23:49:50.230Z,20.90
2017-05-27T23:52:17.147Z,21.20
2017-05-27T23:54:44.036Z,20.90
2017-05-27T23:57:11.333Z,20.80
2017-05-27T23:59:38.228Z,20.70
